createdAt,value
2022-09-03T00:00:20.791Z,3.50
2022-09-03T00:01:23.653Z,2.50
2022-09-03T00:02:26.665Z,3.50
2022-09-03T00:03:29.272Z,4.50
2022-09-03T00:04:32.103Z,5.50
2022-09-03T00:05:34.706Z,3.50
2022-09-03T00:06:37.511Z,3.50
2022-09-03T00:07:40.244Z,3.50
2022-09-03T00:08:43.251Z,4.00
2022-09-03T00:09:45.966Z,4.25
2022-09-03T00:10:48.658Z,5.00
2022-09-03T00:11:51.344Z,4.50
2022-09-03T00:12:54.448Z,6.50
2022-09-03T00:13:57.194Z,5.50
2022-09-03T00:14:59.932Z,5.75
2022-09-03T00:16:02.817Z,6.50
2022-09-03T00:17:05.554Z,6.00
2022-09-03T00:18:08.298Z,5.50
2022-09-03T00:19:10.951Z,6.00
2022-09-03T00:20:13.792Z,6.00
2022-09-03T00:21:16.457Z,4.25
2022-09-03T00:22:19.269Z,3.25
2022-09-03T00:23:22.107Z,3.00
2022-09-03T00:24:24.740Z,4.00
2022-09-03T00:25:27.390Z,3.50
2022-09-03T00:26:30.670Z,3.00
2022-09-03T00:27:33.328Z,4.00
2022-09-03T00:28:36.165Z,4.50
2022-09-03T00:29:38.824Z,3.00
2022-09-03T00:30:41.603Z,1.50
2022-09-03T00:31:44.373Z,1.25
2022-09-03T00:32:47.072Z,3.00
2022-09-03T00:33:50.009Z,4.50
2022-09-03T00:34:52.686Z,3.00
2022-09-03T00:35:56.804Z,1.50
2022-09-03T00:36:59.615Z,2.00
2022-09-03T00:38:05.641Z,2.50
2022-09-03T00:39:08.568Z,2.00
2022-09-03T00:40:11.518Z,2.50
2022-09-03T00:41:14.604Z,4.50
2022-09-03T00:42:17.404Z,2.25
2022-09-03T00:43:20.323Z,1.50
2022-09-03T00:44:23.251Z,3.00
2022-09-03T00:45:25.909Z,2.50
2022-09-03T00:46:28.870Z,2.00
2022-09-03T00:47:31.569Z,1.50
2022-09-03T00:48:34.432Z,2.50
2022-09-03T00:49:37.112Z,3.00
2022-09-03T00:50:39.865Z,1.75
2022-09-03T00:51:42.661Z,1.50
2022-09-03T00:52:45.802Z,3.25
2022-09-03T00:53:48.510Z,2.00
2022-09-03T00:54:51.210Z,4.25
2022-09-03T00:55:54.038Z,5.00
2022-09-03T00:56:56.738Z,2.25
2022-09-03T00:57:59.720Z,1.50
2022-09-03T00:59:02.427Z,4.00
2022-09-03T01:00:05.151Z,4.50
2022-09-03T01:01:07.880Z,2.75
2022-09-03T01:02:10.671Z,3.25
2022-09-03T01:03:13.467Z,2.25
2022-09-03T01:04:16.199Z,2.20
2022-09-03T01:05:19.486Z,3.00
2022-09-03T01:06:22.251Z,2.50
2022-09-03T01:07:24.928Z,2.50
2022-09-03T01:08:27.728Z,1.00
2022-09-03T01:09:30.543Z,1.50
2022-09-03T01:10:33.211Z,5.00
2022-09-03T01:11:35.930Z,6.75
2022-09-03T01:12:38.779Z,5.00
2022-09-03T01:13:41.919Z,3.00
2022-09-03T01:14:44.650Z,1.50
2022-09-03T01:15:48.563Z,4.00
2022-09-03T01:16:51.429Z,3.50
2022-09-03T01:17:54.186Z,3.00
2022-09-03T01:18:56.935Z,3.00
2022-09-03T01:19:59.557Z,3.50
2022-09-03T01:21:02.137Z,5.00
2022-09-03T01:22:04.861Z,4.80
2022-09-03T01:23:07.585Z,3.25
2022-09-03T01:24:10.369Z,1.50
2022-09-03T01:25:13.091Z,2.50
2022-09-03T01:26:15.759Z,4.50
2022-09-03T01:27:18.450Z,2.50
2022-09-03T01:28:21.375Z,1.50
2022-09-03T01:29:24.046Z,3.00
2022-09-03T01:30:26.605Z,3.00
2022-09-03T01:31:29.229Z,4.00
2022-09-03T01:32:31.925Z,3.50
2022-09-03T01:33:34.569Z,1.50
2022-09-03T01:34:37.091Z,2.00
2022-09-03T01:35:39.742Z,2.25
2022-09-03T01:36:42.283Z,2.00
2022-09-03T01:37:44.861Z,2.00
2022-09-03T01:38:48.704Z,3.50
2022-09-03T01:39:51.436Z,2.50
2022-09-03T01:40:54.110Z,1.75
2022-09-03T01:41:56.651Z,2.00
2022-09-03T01:42:59.489Z,3.00
2022-09-03T01:44:02.267Z,3.25
2022-09-03T01:45:05.109Z,2.50
2022-09-03T01:46:08.000Z,4.00
2022-09-03T01:47:10.851Z,5.50
2022-09-03T01:48:15.002Z,3.50
2022-09-03T01:49:17.799Z,3.25
2022-09-03T01:50:20.740Z,2.75
2022-09-03T01:51:23.549Z,3.50
2022-09-03T01:52:26.363Z,5.00
2022-09-03T01:53:28.939Z,3.50
2022-09-03T01:54:31.579Z,3.00
2022-09-03T01:55:34.143Z,4.00
2022-09-03T01:56:37.102Z,4.00
2022-09-03T01:57:39.677Z,2.50
2022-09-03T01:58:43.555Z,3.50
2022-09-03T01:59:46.217Z,3.00
2022-09-03T02:00:49.144Z,3.00
2022-09-03T02:01:51.789Z,2.00
2022-09-03T02:02:54.478Z,2.50
2022-09-03T02:03:57.170Z,2.50
2022-09-03T02:04:59.770Z,2.50
2022-09-03T02:06:02.459Z,3.75
2022-09-03T02:07:05.205Z,4.00
2022-09-03T02:08:07.982Z,2.00
2022-09-03T02:09:10.981Z,3.00
2022-09-03T02:10:13.858Z,3.40
2022-09-03T02:11:16.879Z,2.75
2022-09-03T02:12:20.033Z,3.00
2022-09-03T02:14:43.550Z,2.50
2022-09-03T02:15:46.466Z,1.50
2022-09-03T02:16:49.198Z,2.00
2022-09-03T02:17:51.952Z,3.00
2022-09-03T02:18:54.767Z,3.25
2022-09-03T02:19:57.445Z,3.00
2022-09-03T02:21:00.182Z,4.00
2022-09-03T02:22:02.850Z,4.50
2022-09-03T02:23:05.564Z,2.50
2022-09-03T02:24:08.395Z,2.50
2022-09-03T02:25:11.153Z,3.50
2022-09-03T02:26:13.890Z,3.00
2022-09-03T02:27:16.589Z,2.00
2022-09-03T02:28:19.281Z,1.75
2022-09-03T02:29:22.006Z,1.00
2022-09-03T02:30:24.804Z,2.00
2022-09-03T02:31:27.448Z,2.00
2022-09-03T02:32:30.112Z,1.50
2022-09-03T02:33:32.729Z,1.00
2022-09-03T02:34:35.397Z,1.50
2022-09-03T02:35:38.061Z,2.50
2022-09-03T02:36:40.804Z,1.75
2022-09-03T02:37:43.615Z,1.75
2022-09-03T02:38:46.329Z,1.75
2022-09-03T02:39:49.164Z,2.25
2022-09-03T02:40:51.914Z,3.25
2022-09-03T02:41:54.948Z,2.50
2022-09-03T02:43:00.552Z,2.50
2022-09-03T02:44:03.196Z,2.75
2022-09-03T02:45:05.843Z,1.00
2022-09-03T02:46:08.605Z,2.00
2022-09-03T02:47:11.412Z,5.40
2022-09-03T02:48:14.155Z,5.00
2022-09-03T02:49:16.959Z,3.50
2022-09-03T02:50:19.678Z,2.50
2022-09-03T02:51:22.268Z,2.00
2022-09-03T02:52:24.943Z,2.50
2022-09-03T02:53:27.600Z,4.50
2022-09-03T02:54:30.348Z,4.75
2022-09-03T02:55:33.005Z,4.25
2022-09-03T02:56:35.630Z,2.00
2022-09-03T02:57:38.306Z,2.00
2022-09-03T02:58:41.099Z,1.50
2022-09-03T02:59:43.802Z,2.50
2022-09-03T03:00:46.510Z,3.00
2022-09-03T03:01:49.236Z,4.25
2022-09-03T03:02:51.970Z,3.25
2022-09-03T03:03:54.831Z,2.00
2022-09-03T03:04:57.548Z,2.75
2022-09-03T03:06:00.293Z,2.25
2022-09-03T03:07:03.068Z,1.00
2022-09-03T03:08:05.812Z,1.50
2022-09-03T03:09:08.575Z,1.00
2022-09-03T03:10:11.326Z,1.25
2022-09-03T03:11:13.929Z,1.00
2022-09-03T03:12:16.551Z,1.50
2022-09-03T03:13:19.432Z,0.50
2022-09-03T03:14:22.185Z,0.50
2022-09-03T03:15:24.889Z,3.75
2022-09-03T03:16:27.639Z,2.25
2022-09-03T03:17:30.288Z,1.25
2022-09-03T03:18:32.893Z,3.00
2022-09-03T03:19:35.511Z,3.50
2022-09-03T03:20:38.120Z,3.25
2022-09-03T03:21:40.812Z,2.75
2022-09-03T03:22:43.523Z,1.50
2022-09-03T03:23:46.216Z,2.00
2022-09-03T03:24:49.003Z,2.00
2022-09-03T03:25:51.692Z,2.25
2022-09-03T03:26:55.848Z,1.50
2022-09-03T03:27:58.585Z,2.50
2022-09-03T03:29:01.270Z,2.50
2022-09-03T03:30:04.068Z,2.00
2022-09-03T03:31:06.851Z,2.00
2022-09-03T03:32:09.603Z,2.50
2022-09-03T03:33:12.299Z,1.50
2022-09-03T03:34:15.014Z,0.50
2022-09-03T03:35:17.734Z,1.00
2022-09-03T03:36:20.499Z,1.50
2022-09-03T03:37:23.207Z,1.50
2022-09-03T03:38:25.928Z,2.50
2022-09-03T03:39:28.610Z,3.50
2022-09-03T03:40:31.394Z,3.00
2022-09-03T03:41:34.012Z,4.00
2022-09-03T03:42:36.651Z,3.00
2022-09-03T03:43:39.259Z,1.00
2022-09-03T03:44:42.062Z,2.50
2022-09-03T03:45:44.816Z,2.50
2022-09-03T03:46:47.519Z,2.00
2022-09-03T03:47:50.203Z,2.00
2022-09-03T03:48:52.938Z,2.00
2022-09-03T03:49:55.770Z,1.50
2022-09-03T03:50:58.483Z,1.00
2022-09-03T03:52:01.168Z,1.50
2022-09-03T03:53:03.830Z,2.00
2022-09-03T03:54:06.529Z,1.00
2022-09-03T03:55:09.136Z,1.50
2022-09-03T03:56:11.928Z,1.00
2022-09-03T03:57:14.784Z,1.50
2022-09-03T03:58:17.344Z,2.00
2022-09-03T03:59:20.023Z,2.00
2022-09-03T04:00:22.801Z,2.00
2022-09-03T04:01:27.056Z,0.75
2022-09-03T04:02:30.295Z,1.75
2022-09-03T04:03:32.897Z,1.75
2022-09-03T04:04:35.690Z,1.50
2022-09-03T04:05:43.304Z,1.50
2022-09-03T04:06:42.692Z,1.00
2022-09-03T04:07:45.384Z,1.00
2022-09-03T04:08:47.956Z,1.00
2022-09-03T04:09:52.101Z,2.00
2022-09-03T04:10:54.849Z,2.00
2022-09-03T04:11:57.927Z,2.50
2022-09-03T04:13:00.746Z,5.00
2022-09-03T04:14:03.716Z,3.50
2022-09-03T04:15:06.443Z,3.00
2022-09-03T04:16:09.260Z,3.50
2022-09-03T04:17:12.184Z,4.50
2022-09-03T04:18:15.497Z,5.00
2022-09-03T04:19:18.416Z,4.75
2022-09-03T04:20:20.986Z,1.75
2022-09-03T04:21:23.799Z,2.50
2022-09-03T04:22:26.449Z,2.80
2022-09-03T04:23:29.339Z,4.00
2022-09-03T04:24:32.147Z,4.50
2022-09-03T04:25:34.727Z,1.50
2022-09-03T04:26:37.589Z,1.00
2022-09-03T04:27:40.410Z,1.00
2022-09-03T04:28:43.143Z,3.00
2022-09-03T04:29:45.887Z,2.50
2022-09-03T04:30:49.237Z,2.50
2022-09-03T04:31:52.200Z,4.00
2022-09-03T04:32:55.256Z,0.50
2022-09-03T04:33:58.319Z,1.00
2022-09-03T04:35:00.969Z,2.50
2022-09-03T04:36:03.963Z,4.50
2022-09-03T04:37:07.139Z,2.75
2022-09-03T04:38:10.132Z,3.50
2022-09-03T04:39:13.083Z,5.00
2022-09-03T04:40:15.979Z,3.25
2022-09-03T04:41:18.540Z,2.50
2022-09-03T04:42:21.465Z,2.50
2022-09-03T04:43:24.092Z,3.00
2022-09-03T04:44:26.678Z,4.25
2022-09-03T04:45:29.337Z,2.00
2022-09-03T04:46:32.551Z,3.00
2022-09-03T04:47:35.178Z,4.75
2022-09-03T04:48:37.886Z,3.50
2022-09-03T04:49:40.551Z,3.00
2022-09-03T04:50:43.166Z,2.50
2022-09-03T04:51:45.705Z,3.00
2022-09-03T04:52:48.271Z,3.00
2022-09-03T04:53:51.105Z,2.50
2022-09-03T04:54:54.148Z,3.50
2022-09-03T04:55:57.123Z,3.75
2022-09-03T04:57:00.086Z,4.25
2022-09-03T04:58:03.017Z,3.50
2022-09-03T04:59:06.111Z,2.00
2022-09-03T05:00:08.786Z,2.00
2022-09-03T05:01:11.804Z,3.50
2022-09-03T05:02:14.721Z,4.25
2022-09-03T05:03:17.756Z,3.50
2022-09-03T05:04:20.938Z,3.00
2022-09-03T05:05:23.873Z,2.00
2022-09-03T05:06:26.732Z,2.75
2022-09-03T05:07:29.902Z,3.50
2022-09-03T05:08:32.724Z,2.50
2022-09-03T05:09:35.679Z,3.50
2022-09-03T05:10:40.337Z,6.00
2022-09-03T05:11:44.335Z,5.00
2022-09-03T05:12:53.810Z,3.00
2022-09-03T05:13:56.883Z,2.25
2022-09-03T05:14:59.923Z,4.00
2022-09-03T05:16:02.912Z,4.75
2022-09-03T05:17:05.956Z,4.00
2022-09-03T05:18:08.672Z,3.50
2022-09-03T05:19:11.587Z,3.50
2022-09-03T05:20:14.687Z,2.75
2022-09-03T05:21:20.115Z,4.00
2022-09-03T05:22:22.799Z,4.25
2022-09-03T05:23:25.512Z,3.50
2022-09-03T05:24:30.068Z,4.00
2022-09-03T05:25:36.480Z,4.25
2022-09-03T05:26:39.911Z,5.25
2022-09-03T05:27:42.750Z,2.50
2022-09-03T05:28:49.307Z,2.80
2022-09-03T05:29:56.435Z,3.50
2022-09-03T05:30:59.825Z,4.50
2022-09-03T05:32:04.665Z,5.00
2022-09-03T05:33:07.675Z,4.00
2022-09-03T05:34:18.361Z,3.00
2022-09-03T05:35:14.690Z,2.75
2022-09-03T05:36:17.310Z,5.50
2022-09-03T05:37:20.269Z,6.00
2022-09-03T05:38:22.942Z,4.50
2022-09-03T05:39:25.747Z,4.25
2022-09-03T05:40:28.505Z,4.00
2022-09-03T05:41:31.128Z,5.25
2022-09-03T05:42:33.748Z,5.50
2022-09-03T05:43:39.726Z,3.00
2022-09-03T05:44:42.731Z,3.50
2022-09-03T05:45:45.549Z,5.00
2022-09-03T05:46:49.787Z,4.00
2022-09-03T05:47:52.512Z,3.75
2022-09-03T05:48:55.368Z,2.50
2022-09-03T05:49:58.071Z,1.75
2022-09-03T05:51:00.819Z,3.50
2022-09-03T05:52:03.629Z,4.00
2022-09-03T05:53:06.302Z,2.00
2022-09-03T05:54:09.119Z,1.50
2022-09-03T05:55:13.531Z,1.50
2022-09-03T05:56:17.071Z,0.25
2022-09-03T05:57:19.801Z,1.50
2022-09-03T05:58:22.507Z,2.50
2022-09-03T05:59:25.127Z,1.00
2022-09-03T06:00:27.855Z,0.50
2022-09-03T06:01:30.524Z,2.50
2022-09-03T06:02:33.557Z,2.75
2022-09-03T06:03:36.419Z,3.50
2022-09-03T06:04:39.138Z,2.50
2022-09-03T06:05:41.724Z,2.00
2022-09-03T06:06:44.321Z,1.50
2022-09-03T06:07:47.224Z,2.50
2022-09-03T06:08:49.953Z,1.80
2022-09-03T06:10:01.380Z,1.50
2022-09-03T06:11:04.167Z,1.00
2022-09-03T06:12:06.806Z,1.50
2022-09-03T06:13:09.506Z,0.75
2022-09-03T06:14:12.079Z,1.50
2022-09-03T06:15:14.726Z,0.75
2022-09-03T06:16:17.397Z,0.75
2022-09-03T06:17:20.205Z,0.00
2022-09-03T06:18:22.918Z,1.00
2022-09-03T06:19:25.612Z,2.00
2022-09-03T06:20:28.409Z,2.50
2022-09-03T06:21:31.051Z,1.50
2022-09-03T06:22:33.709Z,2.50
2022-09-03T06:23:36.502Z,2.00
2022-09-03T06:24:39.248Z,1.50
2022-09-03T06:25:42.035Z,2.75
2022-09-03T06:26:44.904Z,3.00
2022-09-03T06:27:47.612Z,2.00
2022-09-03T06:28:50.645Z,3.00
2022-09-03T06:29:53.351Z,3.50
2022-09-03T06:30:56.149Z,2.25
2022-09-03T06:31:58.895Z,3.00
2022-09-03T06:33:01.707Z,2.50
2022-09-03T06:34:04.561Z,0.50
2022-09-03T06:35:07.288Z,1.25
2022-09-03T06:36:10.010Z,2.50
2022-09-03T06:37:12.729Z,1.75
2022-09-03T06:38:15.606Z,1.00
2022-09-03T06:39:18.624Z,3.00
2022-09-03T06:40:21.348Z,2.00
2022-09-03T06:41:24.200Z,1.50
2022-09-03T06:42:26.879Z,2.00
2022-09-03T06:43:29.757Z,1.50
2022-09-03T06:44:35.455Z,1.00
2022-09-03T06:45:38.220Z,2.00
2022-09-03T06:46:40.883Z,2.00
2022-09-03T06:47:43.572Z,1.50
2022-09-03T06:48:46.211Z,2.25
2022-09-03T06:49:49.610Z,3.75
2022-09-03T06:50:52.237Z,3.75
2022-09-03T06:51:54.891Z,2.75
2022-09-03T06:52:57.653Z,2.50
2022-09-03T06:54:00.541Z,3.25
2022-09-03T06:55:03.267Z,3.00
2022-09-03T06:56:07.562Z,3.00
2022-09-03T06:57:09.959Z,4.00
2022-09-03T06:58:13.903Z,2.50
2022-09-03T06:59:17.468Z,1.50
2022-09-03T07:00:20.979Z,1.00
2022-09-03T07:01:23.778Z,2.50
2022-09-03T07:02:26.542Z,3.75
2022-09-03T07:03:29.167Z,2.50
2022-09-03T07:04:31.888Z,1.75
2022-09-03T07:05:34.853Z,1.00
2022-09-03T07:06:37.508Z,2.00
2022-09-03T07:07:40.266Z,3.00
2022-09-03T07:08:43.042Z,4.50
2022-09-03T07:09:48.378Z,4.00
2022-09-03T07:10:49.849Z,4.00
2022-09-03T07:11:52.612Z,4.00
2022-09-03T07:12:55.416Z,3.00
2022-09-03T07:13:58.312Z,1.75
2022-09-03T07:15:01.271Z,1.50
2022-09-03T07:16:04.134Z,2.25
2022-09-03T07:17:07.131Z,0.50
2022-09-03T07:18:09.968Z,1.75
2022-09-03T07:19:12.785Z,1.50
2022-09-03T07:20:15.534Z,1.75
2022-09-03T07:21:18.387Z,1.75
2022-09-03T07:22:21.209Z,1.50
2022-09-03T07:23:23.905Z,2.00
2022-09-03T07:24:26.703Z,1.50
2022-09-03T07:25:29.609Z,2.50
2022-09-03T07:26:32.815Z,2.50
2022-09-03T07:27:35.625Z,2.00
2022-09-03T07:28:38.146Z,2.00
2022-09-03T07:29:42.657Z,1.50
2022-09-03T07:30:44.883Z,0.50
2022-09-03T07:31:47.540Z,2.50
2022-09-03T07:32:50.147Z,2.50
2022-09-03T07:33:52.845Z,2.00
2022-09-03T07:34:55.566Z,2.75
2022-09-03T07:35:58.448Z,2.50
2022-09-03T07:37:01.318Z,3.50
2022-09-03T07:38:04.284Z,2.50
2022-09-03T07:39:07.129Z,3.75
2022-09-03T07:40:10.289Z,4.00
2022-09-03T07:41:12.953Z,3.00
2022-09-03T07:42:17.130Z,0.00
2022-09-03T07:43:23.354Z,1.50
2022-09-03T07:44:26.242Z,1.75
2022-09-03T07:45:29.135Z,3.00
2022-09-03T07:46:32.161Z,4.00
2022-09-03T07:47:34.881Z,3.00
2022-09-03T07:48:38.074Z,2.00
2022-09-03T07:49:40.755Z,2.60
2022-09-03T07:50:43.579Z,2.50
2022-09-03T07:51:46.353Z,2.00
2022-09-03T07:52:49.078Z,2.50
2022-09-03T07:53:51.723Z,1.50
2022-09-03T07:54:54.579Z,2.50
2022-09-03T07:55:57.345Z,2.00
2022-09-03T07:57:00.952Z,1.50
2022-09-03T07:58:03.864Z,2.00
2022-09-03T07:59:06.463Z,1.00
2022-09-03T08:00:09.186Z,1.50
2022-09-03T08:01:11.929Z,2.00
2022-09-03T08:02:14.568Z,1.50
2022-09-03T08:03:17.165Z,2.75
2022-09-03T08:04:19.808Z,3.50
2022-09-03T08:05:22.387Z,3.00
2022-09-03T08:06:25.351Z,3.25
2022-09-03T08:07:28.300Z,2.00
2022-09-03T08:08:35.483Z,2.50
2022-09-03T08:09:35.330Z,2.50
2022-09-03T08:10:38.142Z,2.50
2022-09-03T08:11:40.691Z,3.50
2022-09-03T08:12:43.427Z,5.00
2022-09-03T08:13:46.104Z,4.50
2022-09-03T08:14:48.721Z,1.50
2022-09-03T08:15:51.400Z,1.75
2022-09-03T08:16:54.236Z,3.50
2022-09-03T08:18:03.361Z,2.25
2022-09-03T08:19:01.168Z,1.50
2022-09-03T08:20:03.921Z,1.20
2022-09-03T08:21:06.775Z,1.50
2022-09-03T08:22:09.625Z,2.50
2022-09-03T08:23:12.279Z,2.00
2022-09-03T08:24:15.139Z,2.50
2022-09-03T08:25:18.026Z,2.75
2022-09-03T08:26:20.875Z,3.00
2022-09-03T08:27:23.830Z,2.50
2022-09-03T08:28:26.771Z,1.00
2022-09-03T08:29:31.439Z,1.50
2022-09-03T08:30:33.946Z,3.00
2022-09-03T08:31:36.954Z,1.50
2022-09-03T08:32:39.861Z,1.00
2022-09-03T08:33:42.513Z,1.00
2022-09-03T08:34:45.461Z,1.00
2022-09-03T08:35:48.221Z,2.00
2022-09-03T08:36:51.010Z,2.50
2022-09-03T08:37:56.683Z,1.00
2022-09-03T08:38:57.881Z,0.75
2022-09-03T08:40:01.148Z,1.50
2022-09-03T08:41:04.212Z,2.50
2022-09-03T08:42:07.020Z,1.00
2022-09-03T08:43:09.973Z,1.00
2022-09-03T08:44:12.848Z,2.50
2022-09-03T08:45:15.971Z,2.00
2022-09-03T08:46:18.962Z,1.00
2022-09-03T08:47:21.807Z,3.75
2022-09-03T08:48:26.076Z,3.00
2022-09-03T08:49:28.936Z,1.75
2022-09-03T08:50:32.181Z,1.00
2022-09-03T08:51:34.877Z,1.50
2022-09-03T08:52:37.830Z,3.50
2022-09-03T08:53:40.551Z,4.75
2022-09-03T08:54:46.411Z,5.50
2022-09-03T08:55:49.136Z,3.50
2022-09-03T08:56:53.020Z,2.00
2022-09-03T08:57:55.773Z,2.00
2022-09-03T08:58:58.441Z,3.00
2022-09-03T09:00:01.160Z,4.00
2022-09-03T09:01:03.879Z,3.75
2022-09-03T09:02:06.685Z,2.75
2022-09-03T09:03:09.455Z,3.50
2022-09-03T09:04:12.199Z,5.25
2022-09-03T09:05:14.859Z,4.25
2022-09-03T09:06:17.711Z,2.25
2022-09-03T09:07:20.533Z,3.00
2022-09-03T09:08:23.251Z,3.50
2022-09-03T09:09:25.869Z,3.00
2022-09-03T09:10:30.380Z,4.50
2022-09-03T09:11:32.858Z,5.25
2022-09-03T09:12:42.830Z,4.50
2022-09-03T09:13:39.706Z,2.75
2022-09-03T09:14:42.702Z,5.00
2022-09-03T09:15:45.569Z,6.00
2022-09-03T09:16:48.507Z,4.00
2022-09-03T09:17:51.222Z,3.75
2022-09-03T09:18:53.850Z,5.00
2022-09-03T09:19:56.841Z,5.75
2022-09-03T09:20:59.738Z,6.00
2022-09-03T09:22:03.188Z,5.50
2022-09-03T09:23:06.272Z,5.00
2022-09-03T09:24:08.976Z,3.50
2022-09-03T09:25:11.767Z,2.40
2022-09-03T09:26:14.470Z,4.50
2022-09-03T09:27:17.219Z,5.00
2022-09-03T09:28:20.036Z,4.50
2022-09-03T09:29:22.933Z,3.00
2022-09-03T09:30:25.687Z,3.00
2022-09-03T09:31:29.206Z,4.50
2022-09-03T09:32:32.250Z,5.00
2022-09-03T09:33:35.568Z,2.50
2022-09-03T09:34:52.088Z,1.00
2022-09-03T09:35:52.315Z,1.25
2022-09-03T09:36:55.084Z,3.00
2022-09-03T09:37:58.037Z,1.50
2022-09-03T09:39:00.848Z,0.50
2022-09-03T09:40:03.608Z,2.00
2022-09-03T09:41:06.330Z,1.50
2022-09-03T09:42:09.031Z,1.50
2022-09-03T09:43:11.787Z,1.00
2022-09-03T09:44:14.493Z,1.00
2022-09-03T09:45:18.353Z,1.00
2022-09-03T09:46:21.166Z,3.00
2022-09-03T09:47:23.912Z,2.50
2022-09-03T09:48:26.896Z,2.00
2022-09-03T09:49:29.611Z,1.00
2022-09-03T09:50:32.510Z,0.75
2022-09-03T09:51:35.147Z,1.60
2022-09-03T09:52:38.197Z,2.00
2022-09-03T09:53:41.166Z,1.00
2022-09-03T09:54:43.901Z,1.50
2022-09-03T09:55:46.690Z,2.00
2022-09-03T09:56:49.331Z,2.75
2022-09-03T09:57:52.049Z,3.50
2022-09-03T09:58:54.930Z,3.00
2022-09-03T09:59:57.779Z,3.00
2022-09-03T10:01:00.770Z,3.40
2022-09-03T10:02:03.884Z,2.50
2022-09-03T10:03:06.947Z,2.50
2022-09-03T10:04:10.289Z,1.50
2022-09-03T10:05:13.252Z,1.50
2022-09-03T10:06:15.994Z,2.00
2022-09-03T10:07:18.791Z,2.00
2022-09-03T10:08:21.612Z,1.00
2022-09-03T10:09:29.910Z,1.00
2022-09-03T10:10:28.339Z,1.50
2022-09-03T10:11:31.090Z,2.50
2022-09-03T10:12:33.818Z,2.50
2022-09-03T10:13:36.494Z,3.00
2022-09-03T10:14:39.139Z,2.75
2022-09-03T10:15:41.908Z,2.00
2022-09-03T10:16:44.722Z,1.50
2022-09-03T10:17:47.859Z,2.00
2022-09-03T10:18:50.467Z,4.75
2022-09-03T10:19:53.360Z,5.00
2022-09-03T10:20:56.352Z,4.00
2022-09-03T10:21:59.313Z,2.00
2022-09-03T10:23:02.280Z,3.50
2022-09-03T10:24:07.357Z,4.00
2022-09-03T10:25:09.625Z,2.50
2022-09-03T10:26:12.599Z,2.75
2022-09-03T10:27:15.492Z,2.50
2022-09-03T10:28:18.142Z,2.00
2022-09-03T10:29:21.025Z,1.00
2022-09-03T10:30:23.987Z,2.00
2022-09-03T10:31:26.942Z,2.00
2022-09-03T10:32:34.015Z,2.75
2022-09-03T10:33:34.840Z,3.00
2022-09-03T10:34:37.744Z,3.00
2022-09-03T10:35:40.708Z,5.00
2022-09-03T10:36:43.686Z,2.50
2022-09-03T10:37:46.556Z,0.50
2022-09-03T10:38:49.300Z,2.00
2022-09-03T10:39:52.608Z,2.00
2022-09-03T10:40:56.012Z,1.00
2022-09-03T10:41:58.935Z,2.75
2022-09-03T10:43:01.970Z,3.50
2022-09-03T10:44:04.940Z,2.00
2022-09-03T10:45:07.910Z,1.50
2022-09-03T10:46:11.022Z,2.00
2022-09-03T10:47:13.837Z,1.50
2022-09-03T10:48:16.643Z,0.75
2022-09-03T10:49:19.436Z,2.00
2022-09-03T10:50:22.097Z,3.50
2022-09-03T10:51:24.831Z,3.00
2022-09-03T10:52:27.551Z,2.25
2022-09-03T10:53:30.249Z,2.50
2022-09-03T10:54:32.973Z,2.00
2022-09-03T10:55:35.551Z,1.00
2022-09-03T10:56:38.481Z,1.50
2022-09-03T10:57:41.219Z,1.80
2022-09-03T10:58:43.962Z,1.00
2022-09-03T10:59:46.714Z,1.00
2022-09-03T11:00:49.389Z,1.50
2022-09-03T11:01:52.212Z,1.25
2022-09-03T11:02:55.049Z,1.00
2022-09-03T11:03:58.070Z,0.75
2022-09-03T11:05:01.027Z,0.50
2022-09-03T11:06:03.972Z,1.00
2022-09-03T11:07:06.917Z,0.50
2022-09-03T11:08:09.813Z,0.50
2022-09-03T11:09:12.531Z,1.75
2022-09-03T11:10:15.269Z,1.50
2022-09-03T11:11:18.012Z,1.50
2022-09-03T11:12:20.781Z,1.50
2022-09-03T11:13:23.431Z,0.50
2022-09-03T11:14:26.078Z,0.50
2022-09-03T11:15:28.814Z,1.50
2022-09-03T11:16:31.565Z,1.00
2022-09-03T11:17:34.203Z,0.75
2022-09-03T11:18:37.012Z,0.50
2022-09-03T11:19:39.547Z,0.00
2022-09-03T11:20:42.528Z,2.50
2022-09-03T11:21:45.235Z,3.50
2022-09-03T11:22:47.972Z,1.75
2022-09-03T11:23:55.075Z,2.00
2022-09-03T11:24:54.528Z,1.75
2022-09-03T11:25:57.512Z,1.00
2022-09-03T11:27:00.485Z,1.50
2022-09-03T11:28:03.443Z,3.00
2022-09-03T11:29:06.428Z,3.50
2022-09-03T11:30:09.412Z,3.75
2022-09-03T11:31:12.351Z,2.50
2022-09-03T11:32:15.229Z,1.00
2022-09-03T11:33:18.451Z,2.25
2022-09-03T11:34:23.523Z,2.00
2022-09-03T11:35:25.473Z,1.50
2022-09-03T11:36:28.161Z,1.00
2022-09-03T11:37:31.106Z,0.00
2022-09-03T11:38:34.077Z,1.50
2022-09-03T11:39:36.849Z,2.00
2022-09-03T11:40:39.815Z,2.25
2022-09-03T11:41:42.479Z,1.50
2022-09-03T11:42:45.297Z,1.50
2022-09-03T11:43:48.399Z,2.50
2022-09-03T11:44:51.785Z,1.50
2022-09-03T11:45:55.123Z,1.00
2022-09-03T11:46:57.893Z,2.50
2022-09-03T11:48:00.577Z,3.00
2022-09-03T11:49:03.339Z,3.00
2022-09-03T11:50:06.071Z,3.00
2022-09-03T11:51:08.750Z,1.20
2022-09-03T11:52:11.483Z,1.25
2022-09-03T11:53:14.231Z,1.00
2022-09-03T11:54:16.973Z,1.00
2022-09-03T11:55:19.659Z,2.00
2022-09-03T11:56:22.308Z,3.00
2022-09-03T11:57:25.221Z,3.25
2022-09-03T11:58:28.107Z,1.00
2022-09-03T11:59:31.058Z,1.75
2022-09-03T12:00:33.947Z,2.25
2022-09-03T12:01:36.631Z,1.50
2022-09-03T12:02:39.541Z,2.50
2022-09-03T12:03:42.145Z,3.50
2022-09-03T12:04:46.339Z,3.00
2022-09-03T12:05:49.080Z,1.50
2022-09-03T12:06:51.778Z,0.50
2022-09-03T12:07:54.504Z,0.50
2022-09-03T12:08:58.251Z,1.00
2022-09-03T12:10:09.733Z,4.00
2022-09-03T12:11:12.817Z,9.00
2022-09-03T12:12:16.198Z,2.00
2022-09-03T12:13:19.828Z,1.50
2022-09-03T12:14:23.077Z,2.00
2022-09-03T12:15:27.084Z,2.00
2022-09-03T12:16:30.520Z,1.25
2022-09-03T12:17:33.866Z,0.00
2022-09-03T12:18:37.135Z,0.50
2022-09-03T12:19:40.311Z,2.50
2022-09-03T12:20:43.835Z,2.50
2022-09-03T12:21:47.004Z,2.50
2022-09-03T12:22:50.320Z,2.00
2022-09-03T12:23:57.990Z,2.00
2022-09-03T12:24:57.772Z,2.75
2022-09-03T12:26:00.947Z,3.00
2022-09-03T12:27:04.222Z,1.50
2022-09-03T12:28:07.730Z,0.50
2022-09-03T12:29:12.357Z,1.50
2022-09-03T12:30:15.130Z,3.00
2022-09-03T12:31:18.375Z,0.50
2022-09-03T12:32:21.564Z,1.75
2022-09-03T12:33:25.944Z,3.00
2022-09-03T12:34:29.061Z,3.00
2022-09-03T12:36:36.956Z,1.50
2022-09-03T12:39:07.991Z,1.00
2022-09-03T12:40:17.854Z,2.00
2022-09-03T12:41:57.164Z,0.50
2022-09-03T12:43:36.995Z,0.75
2022-09-03T12:44:04.463Z,0.00
2022-09-03T12:45:07.741Z,0.50
2022-09-03T12:46:11.590Z,0.50
2022-09-03T12:48:19.753Z,2.00
2022-09-03T12:49:30.527Z,2.50
2022-09-03T12:50:27.472Z,3.00
2022-09-03T12:52:35.750Z,3.00
2022-09-03T12:53:38.827Z,1.00
2022-09-03T12:54:42.216Z,1.00
2022-09-03T12:55:45.293Z,0.50
2022-09-03T12:56:49.043Z,3.00
2022-09-03T12:57:56.754Z,3.00
2022-09-03T12:58:56.341Z,2.25
2022-09-03T12:59:59.573Z,1.00
2022-09-03T13:01:02.845Z,0.00
2022-09-03T13:02:05.988Z,0.00
2022-09-03T13:03:09.205Z,1.00
2022-09-03T13:04:12.355Z,1.50
2022-09-03T13:05:15.389Z,1.50
2022-09-03T13:06:18.449Z,0.50
2022-09-03T13:07:21.620Z,0.50
2022-09-03T13:08:25.412Z,2.00
2022-09-03T13:09:28.716Z,2.50
2022-09-03T13:10:31.853Z,2.00
2022-09-03T13:11:34.964Z,1.50
2022-09-03T13:12:38.049Z,3.00
2022-09-03T13:13:41.126Z,3.00
2022-09-03T13:14:44.401Z,2.75
2022-09-03T13:15:47.798Z,2.50
2022-09-03T13:16:51.103Z,3.00
2022-09-03T13:17:54.582Z,4.00
2022-09-03T13:18:57.752Z,2.00
2022-09-03T13:20:01.135Z,1.00
2022-09-03T13:21:04.625Z,2.00
2022-09-03T13:22:07.823Z,4.00
2022-09-03T13:23:11.000Z,2.25
2022-09-03T13:24:14.474Z,1.50
2022-09-03T13:25:17.674Z,4.50
2022-09-03T13:26:21.148Z,4.60
2022-09-03T13:27:24.337Z,3.00
2022-09-03T13:28:27.731Z,1.00
2022-09-03T13:29:30.793Z,2.50
2022-09-03T13:30:33.978Z,4.00
2022-09-03T13:31:37.268Z,3.50
2022-09-03T13:32:40.351Z,3.00
2022-09-03T13:33:43.627Z,2.50
2022-09-03T13:34:46.912Z,1.50
2022-09-03T13:35:50.296Z,0.50
2022-09-03T13:36:53.380Z,2.50
2022-09-03T13:37:56.553Z,2.50
2022-09-03T13:38:59.846Z,2.75
2022-09-03T13:40:03.509Z,2.75
2022-09-03T13:41:06.612Z,1.00
2022-09-03T13:42:09.699Z,2.00
2022-09-03T13:43:12.979Z,4.00
2022-09-03T13:44:17.099Z,3.25
2022-09-03T13:45:20.642Z,1.75
2022-09-03T13:46:24.200Z,1.50
2022-09-03T13:47:28.363Z,2.00
2022-09-03T13:48:32.885Z,1.50
2022-09-03T13:49:36.369Z,1.00
2022-09-03T13:50:39.767Z,1.00
2022-09-03T13:51:43.049Z,1.60
2022-09-03T13:52:46.429Z,2.50
2022-09-03T13:53:49.592Z,2.00
2022-09-03T13:54:52.507Z,1.00
2022-09-03T13:55:56.089Z,0.50
2022-09-03T13:56:59.264Z,0.00
2022-09-03T13:58:03.165Z,1.50
2022-09-03T13:59:06.422Z,1.50
2022-09-03T14:00:09.629Z,1.50
2022-09-03T14:01:12.963Z,3.50
2022-09-03T14:02:16.380Z,5.00
2022-09-03T14:03:19.724Z,5.00
2022-09-03T14:04:24.306Z,3.50
2022-09-03T14:05:27.697Z,2.75